createdAt,value
2022-09-15T00:02:04.573Z,100565.41
2022-09-15T00:07:06.422Z,100565.41
2022-09-15T00:12:07.757Z,100570.63
2022-09-15T00:17:09.095Z,100561.97
2022-09-15T00:22:10.506Z,100559.41
2022-09-15T00:27:11.792Z,100554.22
2022-09-15T00:32:13.100Z,100557.69
2022-09-15T00:37:14.361Z,100555.97
2022-09-15T00:42:20.188Z,100552.47
2022-09-15T00:47:23.387Z,100562.03
2022-09-15T00:52:24.727Z,100563.75
2022-09-15T00:57:29.691Z,100563.75
2022-09-15T01:02:35.076Z,100552.50
2022-09-15T01:07:41.178Z,100554.22
2022-09-15T01:12:42.807Z,100546.44
2022-09-15T01:18:07.342Z,100562.00
2022-09-15T01:23:34.897Z,100560.28
2022-09-15T01:28:44.409Z,100564.59
2022-09-15T01:33:49.573Z,100555.09
2022-09-15T01:38:56.687Z,100562.88
2022-09-15T01:44:09.059Z,100561.16
2022-09-15T01:49:12.507Z,100560.28
2022-09-15T01:54:15.168Z,100567.22
2022-09-15T01:59:16.479Z,100570.66
2022-09-15T02:04:18.395Z,100568.06
2022-09-15T02:09:24.843Z,100553.34
2022-09-15T02:14:47.243Z,100554.22
2022-09-15T02:19:56.192Z,100560.25
2022-09-15T02:25:12.671Z,100553.31
2022-09-15T02:30:15.937Z,100552.47
2022-09-15T02:35:17.811Z,100562.84
2022-09-15T02:40:19.493Z,100550.75
2022-09-15T02:45:20.905Z,100556.78
2022-09-15T02:50:22.356Z,100571.47
2022-09-15T02:55:23.858Z,100574.97
2022-09-15T03:00:26.133Z,100576.66
2022-09-15T03:05:28.634Z,100570.63
2022-09-15T03:10:30.435Z,100576.69
2022-09-15T03:15:31.936Z,100584.47
2022-09-15T03:20:33.266Z,100590.53
2022-09-15T03:25:34.744Z,100583.59
2022-09-15T03:30:36.072Z,100587.06
2022-09-15T03:41:44.342Z,100587.06
2022-09-15T03:46:45.880Z,100589.66
2022-09-15T03:51:47.343Z,100592.25
2022-09-15T03:56:49.088Z,100585.34
2022-09-15T04:01:50.843Z,100587.94
2022-09-15T04:06:53.156Z,100586.19
2022-09-15T04:11:54.439Z,100590.53
2022-09-15T04:16:55.853Z,100594.00
2022-09-15T04:21:57.122Z,100596.59
2022-09-15T04:26:58.452Z,100601.78
2022-09-15T04:31:59.878Z,100594.00
2022-09-15T04:37:01.209Z,100591.41
2022-09-15T04:42:05.748Z,100599.16
2022-09-15T04:47:07.318Z,100591.41
2022-09-15T04:52:10.123Z,100578.44
2022-09-15T04:57:11.954Z,100572.38
2022-09-15T05:02:13.297Z,100580.16
2022-09-15T05:07:14.803Z,100584.47
2022-09-15T05:12:16.133Z,100590.53
2022-09-15T05:17:17.478Z,100594.00
2022-09-15T05:22:19.091Z,100588.84
2022-09-15T05:27:20.444Z,100595.72
2022-09-15T05:32:21.767Z,100597.47
2022-09-15T05:37:23.103Z,100595.75
2022-09-15T05:42:24.605Z,100609.59
2022-09-15T05:47:25.974Z,100607.88
2022-09-15T05:52:27.457Z,100620.00
2022-09-15T05:57:28.822Z,100620.88
2022-09-15T06:02:30.147Z,100628.69
2022-09-15T06:07:31.534Z,100629.53
2022-09-15T06:12:32.988Z,100634.72
2022-09-15T06:17:34.356Z,100646.88
2022-09-15T06:22:35.620Z,100639.94
2022-09-15T06:27:37.031Z,100641.75
2022-09-15T06:32:38.384Z,100646.03
2022-09-15T06:37:39.709Z,100641.69
2022-09-15T06:42:41.166Z,100646.06
2022-09-15T06:47:42.563Z,100642.59
2022-09-15T06:52:43.867Z,100659.91
2022-09-15T06:57:45.186Z,100665.97
2022-09-15T07:02:49.938Z,100669.41
2022-09-15T07:07:51.677Z,100678.94
2022-09-15T07:12:53.009Z,100682.38
2022-09-15T07:17:54.427Z,100691.03
2022-09-15T07:22:55.773Z,100697.06
2022-09-15T07:27:57.066Z,100692.69
2022-09-15T07:32:58.385Z,100680.53
2022-09-15T07:38:00.572Z,100690.00
2022-09-15T07:43:01.876Z,100696.84
2022-09-15T07:48:03.365Z,100697.72
2022-09-15T07:53:04.807Z,100701.25
2022-09-15T07:58:06.087Z,100711.59
2022-09-15T08:03:07.452Z,100703.78
2022-09-15T08:08:08.806Z,100712.47
2022-09-15T08:13:10.081Z,100718.56
2022-09-15T08:18:11.719Z,100725.50
2022-09-15T08:23:13.016Z,100734.13
2022-09-15T08:28:14.356Z,100730.63
2022-09-15T08:33:15.669Z,100736.56
2022-09-15T08:38:17.028Z,100747.03
2022-09-15T08:43:22.970Z,100747.94
2022-09-15T08:48:27.235Z,100750.44
2022-09-15T08:53:35.611Z,100746.94
2022-09-15T08:58:37.694Z,100752.06
2022-09-15T09:03:58.117Z,100757.97
2022-09-15T09:09:06.319Z,100757.88
2022-09-15T09:14:16.900Z,100764.63
2022-09-15T09:19:22.051Z,100762.16
2022-09-15T09:24:39.096Z,100754.06
2022-09-15T09:29:44.777Z,100764.50
2022-09-15T09:35:02.389Z,100759.53
2022-09-15T09:40:06.825Z,100761.47
2022-09-15T09:45:11.857Z,100773.69
2022-09-15T09:50:34.375Z,100777.16
2022-09-15T09:55:35.813Z,100785.78
2022-09-15T10:00:38.369Z,100777.78
2022-09-15T10:05:40.058Z,100777.81
2022-09-15T10:10:49.412Z,100767.28
2022-09-15T10:15:55.636Z,100764.88
2022-09-15T10:20:57.463Z,100752.38
2022-09-15T10:26:17.670Z,100748.97
2022-09-15T10:31:28.626Z,100742.38
2022-09-15T10:36:30.740Z,100755.47
2022-09-15T10:41:34.964Z,100764.38
2022-09-15T10:46:39.522Z,100765.06
2022-09-15T10:51:59.731Z,100756.22
2022-09-15T10:57:10.985Z,100741.97
2022-09-15T11:02:24.220Z,100734.13
2022-09-15T11:07:28.556Z,100731.53
2022-09-15T11:13:05.529Z,100734.00
2022-09-15T11:18:22.474Z,100730.25
2022-09-15T11:23:45.261Z,100741.16
2022-09-15T11:28:53.348Z,100728.47
2022-09-15T11:34:12.953Z,100729.88
2022-09-15T11:39:24.488Z,100729.13
2022-09-15T11:44:31.375Z,100726.59
2022-09-15T11:49:32.676Z,100725.63
2022-09-15T11:54:45.729Z,100722.69
2022-09-15T11:59:51.983Z,100708.94
2022-09-15T12:04:59.520Z,100703.41
2022-09-15T12:10:06.332Z,100694.38
2022-09-15T12:15:12.338Z,100691.03
2022-09-15T12:20:17.140Z,100695.91
2022-09-15T12:25:21.943Z,100692.69
2022-09-15T12:30:39.880Z,100704.06
2022-09-15T12:35:41.165Z,100697.22
2022-09-15T12:40:42.605Z,100691.59
2022-09-15T12:45:53.238Z,100693.03
2022-09-15T12:51:02.348Z,100679.31
2022-09-15T12:56:07.207Z,100683.03
2022-09-15T13:01:30.183Z,100678.16
2022-09-15T13:06:34.956Z,100669.63
2022-09-15T13:11:39.394Z,100670.38
2022-09-15T13:16:41.016Z,100678.69
2022-09-15T13:21:44.753Z,100680.41
2022-09-15T13:26:50.499Z,100701.47
2022-09-15T13:32:15.652Z,100715.34
2022-09-15T13:43:23.449Z,100740.25
2022-09-15T13:48:31.025Z,100734.22
2022-09-15T13:53:55.438Z,100740.44
2022-09-15T13:59:05.318Z,100730.50
2022-09-15T14:04:16.818Z,100727.91
2022-09-15T14:09:20.143Z,100727.78
2022-09-15T14:14:27.791Z,100727.75
2022-09-15T14:19:34.173Z,100729.06
2022-09-15T14:24:40.029Z,100724.78
2022-09-15T14:29:46.117Z,100721.09
2022-09-15T14:39:56.520Z,100731.78
2022-09-15T14:50:33.588Z,100746.53
2022-09-15T14:55:48.162Z,100758.13
2022-09-15T15:00:55.677Z,100758.28
2022-09-15T15:06:28.096Z,100761.69
2022-09-15T15:11:25.590Z,100759.03
2022-09-15T15:16:28.469Z,100743.84
2022-09-15T15:21:38.193Z,100741.44
2022-09-15T15:26:40.992Z,100739.66
2022-09-15T15:31:42.398Z,100729.22
2022-09-15T15:36:43.787Z,100735.47
2022-09-15T15:41:45.109Z,100747.00
2022-09-15T15:46:54.301Z,100751.53
2022-09-15T15:51:56.829Z,100754.22
2022-09-15T15:57:04.244Z,100760.38
2022-09-15T16:02:10.255Z,100768.19
2022-09-15T16:07:16.570Z,100768.03
2022-09-15T16:12:17.943Z,100766.19
2022-09-15T16:17:19.275Z,100753.91
2022-09-15T16:22:21.058Z,100758.34
2022-09-15T16:27:22.391Z,100762.84
2022-09-15T16:32:24.793Z,100773.31
2022-09-15T16:37:26.089Z,100781.41
2022-09-15T16:42:27.457Z,100776.97
2022-09-15T16:47:30.618Z,100778.00
2022-09-15T16:52:32.100Z,100782.47
2022-09-15T16:57:33.422Z,100798.13
2022-09-15T17:02:34.727Z,100795.63
2022-09-15T17:07:36.040Z,100803.53
2022-09-15T17:12:37.740Z,100800.03
2022-09-15T17:17:39.075Z,100801.84
2022-09-15T17:22:40.643Z,100801.91
2022-09-15T17:27:42.061Z,100802.81
2022-09-15T17:32:43.367Z,100803.69
2022-09-15T17:37:45.500Z,100806.31
2022-09-15T17:42:47.483Z,100808.94
2022-09-15T17:47:48.828Z,100808.97
2022-09-15T17:52:50.312Z,100802.03
2022-09-15T17:57:51.699Z,100802.91
2022-09-15T18:02:54.497Z,100814.19
2022-09-15T18:07:56.896Z,100825.47
2022-09-15T18:12:58.321Z,100823.72
2022-09-15T18:18:02.794Z,100836.75
2022-09-15T18:23:04.113Z,100848.88
2022-09-15T18:28:05.428Z,100854.97
2022-09-15T18:33:08.040Z,100864.47
2022-09-15T18:38:10.143Z,100873.97
2022-09-15T18:43:12.076Z,100867.00
2022-09-15T18:48:13.583Z,100877.38
2022-09-15T18:53:14.945Z,100879.06
2022-09-15T18:58:17.661Z,100892.09
2022-09-15T19:03:22.340Z,100932.47
2022-09-15T19:08:26.091Z,100953.63
2022-09-15T19:13:28.817Z,100964.75
2022-09-15T19:18:31.533Z,100961.19
2022-09-15T19:23:35.983Z,100966.38
2022-09-15T19:28:39.957Z,100956.75
2022-09-15T19:33:41.792Z,100946.50
2022-09-15T19:38:44.388Z,100939.59
2022-09-15T19:43:51.606Z,100940.50
2022-09-15T19:48:53.421Z,100930.06
2022-09-15T19:53:55.813Z,100931.69
2022-09-15T19:58:57.855Z,100932.50
2022-09-15T20:09:20.781Z,100935.97
2022-09-15T20:14:22.210Z,100944.47
2022-09-15T20:19:26.287Z,100945.16
2022-09-15T20:24:27.869Z,100960.78
2022-09-15T20:29:29.201Z,100958.06
2022-09-15T20:34:30.591Z,100959.72
2022-09-15T20:39:32.100Z,100949.38
2022-09-15T20:44:33.485Z,100951.06
2022-09-15T20:49:40.152Z,100952.66
2022-09-15T20:54:44.724Z,100951.72
2022-09-15T20:59:46.124Z,100952.66
2022-09-15T21:04:47.764Z,100948.34
2022-09-15T21:09:49.170Z,100950.72
2022-09-15T21:14:51.690Z,100955.03
2022-09-15T21:19:54.332Z,100964.44
2022-09-15T21:24:58.058Z,100968.00
2022-09-15T21:29:59.949Z,100953.91
2022-09-15T21:35:03.209Z,100969.56
2022-09-15T21:40:05.204Z,100975.41
2022-09-15T21:45:07.437Z,100973.78
2022-09-15T21:50:08.977Z,100976.22
2022-09-15T21:55:10.446Z,100977.00
2022-09-15T22:00:12.332Z,100977.91
2022-09-15T22:05:13.774Z,100972.66
2022-09-15T22:10:15.285Z,100978.69
2022-09-15T22:15:16.689Z,100975.19
2022-09-15T22:20:18.193Z,100976.78
2022-09-15T22:25:21.881Z,100976.81
2022-09-15T22:30:23.772Z,100973.28
2022-09-15T22:35:25.222Z,100973.28
2022-09-15T22:40:26.710Z,100968.25
2022-09-15T22:45:30.537Z,100959.72
2022-09-15T22:50:32.317Z,100951.00
2022-09-15T22:55:33.676Z,100942.44
2022-09-15T23:00:37.705Z,100935.63
2022-09-15T23:05:46.421Z,100926.25
2022-09-15T23:10:48.846Z,100925.34
2022-09-15T23:15:53.262Z,100930.47
2022-09-15T23:21:01.253Z,100927.78
2022-09-15T23:26:03.581Z,100931.16
2022-09-15T23:31:05.474Z,100925.19
2022-09-15T23:36:08.092Z,100936.16
2022-09-15T23:41:09.962Z,100936.16
2022-09-15T23:46:11.655Z,100925.66
2022-09-15T23:51:13.058Z,100935.97
2022-09-15T23:56:14.436Z,100942.09
